Georgetown, Missouri
Current Conditions -  °F | °C
As of 6:53 AM on Wednesday 26 Nov 2014 (Local Time) from KDMO Reporting Station
Light Snow Light Snow  
Wind Chill: 27°   Ceiling: 1200
Heat Index: 35°   Visibility: 4mi
Dew Point: 31°   Wind: 10mph
Humidity: 85%   Direction: 220°SW
Pressure: 29.96"   Gusts: NA
Location:  38.6763°N, 93.2612°W
Report Text: KDMO 261253Z AUTO 22009KT 4SM -SN BR BKN012 OVC018 02/M01 A2996 RMK AO2 RAE23SNB23 SLP153 P0003 T00171006
Loading
Personal Weather Stations






























Interactive Weather Map New forecast layout! Learn more

10-Day Weather Forecast

Advertisements
Track Severe Weather on mobile